Terminal Aerodrome Forecast
Issued by NWS Chicago, IL

Home | Current Version | Previous Version | Graphics & Text | Print | Product List | Glossary On
Versions: 1 2 3 4 5 6 7 8 9 10 11 12 13 14 15 16 17 18 19 20 21 22 23 24 25 26 27
336
FTUS43 KLOT 180912 AAB
TAFRFD
TAF AMD
KRFD 180912Z 1809/1906 24004KT 1/4SM -DZ FG OVC002
     FM181200 25007KT 1SM -DZ BR OVC004
     FM181600 24010KT P6SM OVC015
     FM181900 24010KT P6SM BKN025
     FM182300 21010KT P6SM SKC WS020/27045KT=

USA.gov is the U.S. government's official web portal to all federal, state and local government web resources and services.